ראשי / חיפושים אחרונים

חיפושים אחרונים

לוחית
סוג רכב
דגם
שנה
תאריך חיפוש
שעת חיפוש
5651374 קרייזלר מכסיקו - 2011 30/08/2026 19:36:27
2835364 אאודי גרמניה A4 2008 30/08/2026 19:36:27
7244265 מזדה יפן MAZDA 2 2008 30/08/2026 19:36:25
3806779 רנו טורקיה FLUENCE 2012 30/08/2026 19:36:23
14778403 טויוטה יפן RAV 4 HYBRID 2022 30/08/2026 19:36:20
23631304 יונדאי קוריאה הדרומית KONA HYBRID 2025 30/08/2026 19:36:19
83596202 פולקסווגן מקסיקה TIGUAN ALLSPACE 2022 30/08/2026 19:36:18
83596202 פולקסווגן מקסיקה TIGUAN ALLSPACE 2022 30/08/2026 19:36:17
26187501 סקודה צ'כיה SUPERB 2017 30/08/2026 19:36:15
4379874 טויוטה טורקיה AURIS 2011 30/08/2026 19:36:15
1799223 סובארו יפן IMPREZA 1999 30/08/2026 19:36:14
5092426 טויוטה בריטניה COROLLA TS HSD 2021 30/08/2026 19:36:13
3689776 יונדאי טורקיה I20 2011 30/08/2026 19:36:10
8027979 טויוטה תאילנד HILUX 2012 30/08/2026 19:36:10
1181671 סיאט ספרד IBIZA 2010 30/08/2026 19:36:05
9770453 סאן יאנג טיואן - 2013 30/08/2026 19:36:05
5160834 פולקסווגן ספרד POLO 2015 30/08/2026 19:36:00
3500034 מרצדס גרמניה A45 AMG 2016 30/08/2026 19:35:58
3415423 סובארו יפן IMPREZA NEW 2004 30/08/2026 19:35:57
80127002 שברולט ארהב" TRAVERSE 2022 30/08/2026 19:35:57
2906252 קיה קוריאה הדרומית FORTE 2013 30/08/2026 19:35:55
2559569 פורד בלגיה GALAXY 2009 30/08/2026 19:35:50
75783301 טויוטה טורקיה COROLLA HSD SDN 2019 30/08/2026 19:35:43
83596202 פולקסווגן מקסיקה TIGUAN ALLSPACE 2022 30/08/2026 19:35:43
75783301 טויוטה טורקיה COROLLA HSD SDN 2019 30/08/2026 19:35:43
75783301 טויוטה טורקיה COROLLA HSD SDN 2019 30/08/2026 19:35:41
9915966 ניסאן מקסיקו TIIDA 2008 30/08/2026 19:35:40
34091701 מזדה תאילנד MAZDA 2 2018 30/08/2026 19:35:32
28201302 סיאט צ'כיה ATECA 2020 30/08/2026 19:35:30
3806779 רנו טורקיה FLUENCE 2012 30/08/2026 19:35:29
4250479 רנו צרפת - 2013 30/08/2026 19:35:26
3178986 סוזוקי הונגריה SX4 CROSSOVER 2017 30/08/2026 19:35:23
57883502 מזדה יפן MAZDA 3 2021 30/08/2026 19:35:22
5621675 מזדה יפן CX-5 2012 30/08/2026 19:35:12
77872202 סובארו יפן FORESTER 2022 30/08/2026 19:35:07
10771102 פיג'ו צרפת 5008 2020 30/08/2026 19:35:06
7463276 פולקסווגן ספרד POLO 2012 30/08/2026 19:35:03
3806779 רנו טורקיה FLUENCE 2012 30/08/2026 19:35:00
1435014 רנו ספרד MEGANE II 2006 30/08/2026 19:34:52
4211211 מיצובישי תאילנד SPACE STAR 2013 30/08/2026 19:34:50
5640531 וולבו שבדיה - 2014 30/08/2026 19:34:48
14596201 קיה קוריאה הדרומית PICANTO 2018 30/08/2026 19:34:48
50065103 פולקסווגן פולי - 2023 30/08/2026 19:34:47
4518126 ב מ וו גרמניה - 2023 30/08/2026 19:34:47
1030585 קיה סלובקיה SPORTAGE 2016 30/08/2026 19:34:45
58123001 הונדה בריטניה CIVIC 5D 1.0 2018 30/08/2026 19:34:42
2912352 קיה קוריאה הדרומית PICANTO 2013 30/08/2026 19:34:37
4570731 יונדאי טורקיה I10 2014 30/08/2026 19:34:36
27042601 אופל גרמניה ADAM 2018 30/08/2026 19:34:35
3806779 רנו טורקיה FLUENCE 2012 30/08/2026 19:34:30
32540601 קואנג יאנג סין - 2019 30/08/2026 19:34:30
85091102 מזדה תאילנד MAZDA 2 2022 30/08/2026 19:34:25
1165174 יונדאי הודו I10 2010 30/08/2026 19:34:24
9233955 פורשה גרמניה - 1980 30/08/2026 19:34:20
43769404 בי ווי די סין SEAL U 2025 30/08/2026 19:34:19
8176784 טויוטה בריטניה AURIS HYBRID 2018 30/08/2026 19:34:18
66516001 סקודה צ'כיה KAROQ 2019 30/08/2026 19:34:15
83508003 יונדאי קוריאה הדרומית ELANTRA HEV 2024 30/08/2026 19:34:10
9155569 מרצדס בנץ ארהב - 2008 30/08/2026 19:34:06
80543403 צ'רי סין TIGGO 8 PRO 2024 30/08/2026 19:34:05
3168913 יונדאי קוריאה הדרומית TUCSON 2006 30/08/2026 19:34:02
56891404 צ'רי סין FX HEV 2026 30/08/2026 19:34:00
9292453 שברולט קוריאה הדרומית SPARK 2014 30/08/2026 19:33:57
57929303 טסלה גרמניה MODEL Y 2023 30/08/2026 19:33:55
3878570 סוזוקי יפן SX4 2009 30/08/2026 19:33:48
4512080 סיאט ספרד IBIZA 2017 30/08/2026 19:33:45
7504668 מזדה יפן MAZDA 3 2010 30/08/2026 19:33:40
60212703 רנו צרפת - 2024 30/08/2026 19:33:35
61285601 פורד ארהב" - 2020 30/08/2026 19:33:30
8483038 קיה סלובקיה SPORTAGE 2016 30/08/2026 19:33:29
9592011 קיה קוריאה הדרומית RIO 2014 30/08/2026 19:33:29
63476803 בי ווי די סין ATTO 3 2024 30/08/2026 19:33:25
5640531 וולבו שבדיה - 2014 30/08/2026 19:33:24
50065103 פולקסווגן פולי - 2023 30/08/2026 19:33:21
4205433 קיה קוריאה הדרומית PICANTO 2015 30/08/2026 19:33:20
64045002 סקודה צ'כיה KODIAQ FL 2021 30/08/2026 19:33:19
4518126 ב מ וו גרמניה - 2023 30/08/2026 19:33:12
6555538 קיה סלובקיה SPORTAGE 2016 30/08/2026 19:33:06
5745713 סוזוקי הונגריה SX4 2012 30/08/2026 19:33:06
37625401 מרצדס בנץ גרמנ - 2019 30/08/2026 19:33:05
9155569 מרצדס בנץ ארהב - 2008 30/08/2026 19:33:04
43840404 בי ווי די סין SEAL U 2026 30/08/2026 19:32:54
1014784 ניסאן ארהב" ALTIMA 2016 30/08/2026 19:32:51
4085114 טויוטה בריטניה COROLLA RUNX 2006 30/08/2026 19:32:51
1709878 מרוטי סוזוקי הודו ALTO 2011 30/08/2026 19:32:50
60977901 ב מ וו גרמניה 118I 2020 30/08/2026 19:32:49
67297703 טויוטה יפן RAV 4 HYBRID 2024 30/08/2026 19:32:49
1577034 מיצובישי יפן OUTLANDER 2015 30/08/2026 19:32:48
43840404 בי ווי די סין SEAL U 2026 30/08/2026 19:32:46
26430901 קרייזלר ארהב" GRAND CHEROKEE 2017 30/08/2026 19:32:46
94218701 מרצדס גרמניה E250CDI 2013 30/08/2026 19:32:40
2359833 דאצ'יה רומניה DUSTER 2015 30/08/2026 19:32:34
7059179 טויוטה צרפת YARIS 2012 30/08/2026 19:32:28
3233376 מרצדס ארהב" GL350CDI 4MATIC 2012 30/08/2026 19:32:16
60977901 ב מ וו גרמניה 118I 2020 30/08/2026 19:32:03
82030202 טויוטה יפן RAV 4 HYBRID 2021 30/08/2026 19:31:56
67297703 טויוטה יפן RAV 4 HYBRID 2024 30/08/2026 19:31:53
43840404 בי ווי די סין SEAL U 2026 30/08/2026 19:31:52
1225561 שברולט קוריאה הדרומית AVEO 2007 30/08/2026 19:31:50
3390011 מיצובישי יפן OUTLANDER 2013 30/08/2026 19:31:48
30158902 שברולט קוריאה הדרומית SPARK 2021 30/08/2026 19:31:45
3806779 רנו טורקיה FLUENCE 2012 30/08/2026 19:31:29
48886403 סיטרואן פורטוגל BERLINGO 2023 30/08/2026 19:31:27
30173803 מרצדס גרמניה GLC300 E 4MATIC 2023 30/08/2026 19:31:14
36395903 בי ווי די סין ATTO 3 2023 30/08/2026 19:31:09
14398203 טויוטה תאילנד HILUX 2022 30/08/2026 19:31:04
49315904 פיאט ספרד DOBLO 2026 30/08/2026 19:31:03
35526202 פורשה גרמניה 911 CARRERA 2023 30/08/2026 19:31:01
75029404 צ'רי סין TIGGO 7 PRO 2026 30/08/2026 19:30:59
7072739 יונדאי צ'כיה TUCSON 2016 30/08/2026 19:30:53
4782579 קיה קוריאה הדרומית SPORTAGE 2012 30/08/2026 19:30:51
20480901 רנו צרפת KANGOO 2018 30/08/2026 19:30:51
8731732 שברולט קוריאה הדרומית SPARK 2014 30/08/2026 19:30:49
20430901 ניסאן הודו MICRA 2018 30/08/2026 19:30:49
60977901 ב מ וו גרמניה 118I 2020 30/08/2026 19:30:48
1121268 סוזוקי יפן SX4 2009 30/08/2026 19:30:47
26480901 טויוטה צרפת YARIS HYBRID 2018 30/08/2026 19:30:46
8617574 קיה קוריאה הדרומית SPORTAGE 2011 30/08/2026 19:30:45
48571301 פיג'ו צרפת 3008 2019 30/08/2026 19:30:44
26430901 קרייזלר ארהב" GRAND CHEROKEE 2017 30/08/2026 19:30:42
87618101 מרצדס הונגריה CLA250 2020 30/08/2026 19:30:41
7684367 הונדה יפן ACCORD 2008 30/08/2026 19:30:39
6648866 טויוטה יפן CAMRY 2008 30/08/2026 19:30:39
90326601 עטרייה מתכת - 2018 30/08/2026 19:30:34
29077503 ג'יפ ארהב" GRAND CHEROKEE 2022 30/08/2026 19:30:29
3472154 סקודה צ'כיה OCTAVIA 2015 30/08/2026 19:30:26
26480901 טויוטה צרפת YARIS HYBRID 2018 30/08/2026 19:30:26
8731732 שברולט קוריאה הדרומית SPARK 2014 30/08/2026 19:30:25
38958903 טויוטה טורקיה C-HR HYBRID 2023 30/08/2026 19:30:24
78491101 וולבו שבדיה XC90 T8 2020 30/08/2026 19:30:24
1804661 מזדה יפן MAZDA 3 2007 30/08/2026 19:30:19
27557202 יונדאי קוריאה הדרומית IONIQ HYBRID 2020 30/08/2026 19:30:18
2838120 מיצובישי יפן - 1996 30/08/2026 19:30:17
44836701 טויוטה טורקיה C-HR HYBRID 2018 30/08/2026 19:30:15
7198852 הונדה בריטניה CR-V 2013 30/08/2026 19:30:13
74529501 סקודה צ'כיה KODIAQ 2019 30/08/2026 19:30:07
73124602 ב מ וו גרמניה 318I 2021 30/08/2026 19:30:03
20430901 ניסאן הודו MICRA 2018 30/08/2026 19:30:02
73900602 קיה קוריאה הדרומית NIRO PHEV 2021 30/08/2026 19:29:59
64125304 מיצובישי יפן OUTLANDER 2026 30/08/2026 19:29:59
9033113 יונדאי צ'כיה I30 2012 30/08/2026 19:29:57
4796785 קיה קוריאה הדרומית PICANTO 2017 30/08/2026 19:29:55
2514251 טויוטה טורקיה COROLLA 2003 30/08/2026 19:29:54
4647309 טויוטה יפן - 1995 30/08/2026 19:29:54
7525763 טויוטה תאילנד HILUX VIGO 2008 30/08/2026 19:29:50
67645303 טויוטה טורקיה TOYOTA C-HR 2024 30/08/2026 19:29:49
8918939 מרצדס גרמניה C300 2017 30/08/2026 19:29:45
1046335 ניסאן יפן ALMERA 2001 30/08/2026 19:29:45
71346903 אורה סין ORA FUNKY CAT 2024 30/08/2026 19:29:44
36198303 קיה קוריאה הדרומית NIRO PHEV 2023 30/08/2026 19:29:44
4842433 קיה סלובקיה SPORTAGE 2015 30/08/2026 19:29:41
78746903 יונדאי קוריאה הדרומית ELANTRA HEV 2024 30/08/2026 19:29:41
4710550 מזדה תאילנד B-2500 2002 30/08/2026 19:29:41
20480901 רנו צרפת KANGOO 2018 30/08/2026 19:29:40
24625301 וולבו שבדיה - 2018 30/08/2026 19:29:39
67160502 טסלה ארהב" MODEL 3 2021 30/08/2026 19:29:39
4641665 סיטרואן צרפת C4 2008 30/08/2026 19:29:37
73570101 יונדאי צ'כיה TUCSON 2019 30/08/2026 19:29:37
9994312 וולבו בלגיה - 2013 30/08/2026 19:29:37
74250903 טויוטה טורקיה COROLLA SDN HSD 2024 30/08/2026 19:29:35
17712302 אאודי הונגריה Q3 SPORTBACK 2020 30/08/2026 19:29:34
8617574 קיה קוריאה הדרומית SPORTAGE 2011 30/08/2026 19:29:31
35806304 יונדאי קוריאה הדרומית VENUE 2025 30/08/2026 19:29:29
13131801 קיה סלובקיה SPORTAGE 2017 30/08/2026 19:29:26
9636228 סוזוקי יפן ליאנה 2005 30/08/2026 19:29:23
1455976 מזדה יפן MAZDA 6 2013 30/08/2026 19:29:18
3670014 טויוטה יפן LAND CRUISER 2006 30/08/2026 19:29:13
8731732 שברולט קוריאה הדרומית SPARK 2014 30/08/2026 19:29:11
2654723 סובארו יפן IMPREZA NEW 2002 30/08/2026 19:29:08
1197934 מרצדס בנץ גרמנ - 2016 30/08/2026 19:29:05
6883531 קיה קוריאה הדרומית RIO 2014 30/08/2026 19:29:03
15349201 יונדאי טורקיה I10 2017 30/08/2026 19:29:02
5210031 הונדה בריטניה CIVIC 2014 30/08/2026 19:29:01
4782579 קיה קוריאה הדרומית SPORTAGE 2012 30/08/2026 19:28:59
37025602 ב מ וו גרמניה M235I XDRIVE 2020 30/08/2026 19:28:58
1217273 יונדאי צ'כיה I30 2010 30/08/2026 19:28:57
20122101 רנו טורקיה GRAND COUPE 2018 30/08/2026 19:28:56
37440103 שברולט ארהב" - 2025 30/08/2026 19:28:55
9921173 יונדאי ארהב" - 2011 30/08/2026 19:28:53
89618303 לקסוס יפן LEXUS RX450H P 2024 30/08/2026 19:28:51
29638003 סוזוקי הונגריה S-CROSS 2023 30/08/2026 19:28:51
9409681 טויוטה טורקיה VERSO 2017 30/08/2026 19:28:49
5762352 טויוטה טורקיה COROLLA 2013 30/08/2026 19:28:47
36939701 דאף אנגליה - 2019 30/08/2026 19:28:46
75343002 אופל ספרד CORSA 2022 30/08/2026 19:28:44
32504002 טויוטה טורקיה COROLLA SDN 2020 30/08/2026 19:28:44
3377861 קואנג יאנג טיו - 2007 30/08/2026 19:28:43
1132975 פיג'ו תורכיה PARTNER 2011 30/08/2026 19:28:43
23295302 אוובוס ספרד - 2021 30/08/2026 19:28:42
3672372 איסוזו תאילנד PICK-UP 2010 30/08/2026 19:28:41
4842433 קיה סלובקיה SPORTAGE 2015 30/08/2026 19:28:40
9997813 קרייזלר מכסיקו - 2013 30/08/2026 19:28:39
6954030 טויוטה צרפת YARIS 2014 30/08/2026 19:28:39
1610262 טויוטה יפן LAND CRUISER 2007 30/08/2026 19:28:39
8731732 שברולט קוריאה הדרומית SPARK 2014 30/08/2026 19:28:38
33340404 מ.ג סין CYBERSTER 2026 30/08/2026 19:28:37
53607103 מיצובישי יפן ASX 2023 30/08/2026 19:28:37
50040801 מרצדס גרמניה GLA200 2018 30/08/2026 19:28:37
5558555 מרצדס גרמניה S500 MAYBACH 2017 30/08/2026 19:28:37
58693002 סקודה צ'כיה OCTAVIA 2021 30/08/2026 19:28:37
וואטסאפ